Time;durP1;ratioP1;P1;durP2;ratioP2;P2;SDS_P1;SDS_P2;PMS_P1;PMS_P2;Temp;Humidity;BMP_temperature;BMP_pressure;BME280_temperature;BME280_humidity;BME280_pressure;Samples;Min_cycle;Max_cycle;Signal;HPM_P1;HPM_P2
2021/06/25 00:02:09;;;;;;;2.80;2.58;;;;;18.70;101818.00;;;;5106347;28;20197;-78
2021/06/25 00:04:36;;;;;;;2.72;2.45;;;;;18.70;101817.00;;;;5098849;28;20201;-77
2021/06/25 00:07:04;;;;;;;3.58;3.03;;;;;18.70;101811.00;;;;5110581;28;20190;-78
2021/06/25 00:09:31;;;;;;;3.20;2.78;;;;;18.60;101808.00;;;;5111663;28;20217;-78
2021/06/25 00:12:00;;;;;;;4.35;2.72;;;;;18.60;101820.00;;;;5112316;28;20193;-78
2021/06/25 00:14:27;;;;;;;3.38;2.72;;;;;18.50;101816.00;;;;5101527;28;20190;-77
2021/06/25 00:16:54;;;;;;;4.80;3.33;;;;;18.50;101809.00;;;;5102366;28;20210;-78
2021/06/25 00:19:22;;;;;;;4.65;4.05;;;;;18.50;101814.00;;;;5111471;28;20687;-78
2021/06/25 00:21:50;;;;;;;3.90;3.50;;;;;18.50;101816.00;;;;5111549;28;20198;-78
2021/06/25 00:24:17;;;;;;;4.45;3.83;;;;;18.40;101813.00;;;;5100189;28;20238;-78
2021/06/25 00:26:44;;;;;;;4.50;3.92;;;;;18.40;101818.00;;;;5095796;28;21002;-78
2021/06/25 00:29:13;;;;;;;4.28;3.55;;;;;18.40;101814.00;;;;5111124;28;20582;-78
2021/06/25 00:32:14;;;;;;;4.45;3.72;;;;;18.20;101800.00;;;;5109800;28;20193;-78
2021/06/25 00:34:41;;;;;;;4.70;3.28;;;;;18.30;101801.00;;;;5110787;28;20691;-78
2021/06/25 00:37:09;;;;;;;4.72;3.80;;;;;18.20;101798.00;;;;5111608;28;20221;-78
2021/06/25 00:39:37;;;;;;;4.05;3.72;;;;;18.20;101797.00;;;;5110813;28;20230;-78
2021/06/25 00:42:05;;;;;;;4.50;3.88;;;;;18.20;101789.00;;;;5111522;28;20227;-78
2021/06/25 00:44:33;;;;;;;4.78;4.18;;;;;18.10;101790.00;;;;5102735;28;20206;-78
2021/06/25 00:47:01;;;;;;;3.95;3.58;;;;;18.10;101787.00;;;;5097053;28;20182;-78
2021/06/25 00:49:28;;;;;;;4.50;4.07;;;;;18.10;101788.00;;;;5109436;28;20626;-78
2021/06/25 00:51:55;;;;;;;5.20;4.03;;;;;18.00;101776.00;;;;5111143;28;20209;-78
2021/06/25 00:54:23;;;;;;;4.57;4.18;;;;;18.00;101775.00;;;;5104633;28;20206;-78
2021/06/25 00:56:50;;;;;;;4.53;4.07;;;;;18.00;101770.00;;;;5108665;28;20197;-78
2021/06/25 00:59:18;;;;;;;4.35;3.60;;;;;17.90;101767.00;;;;5110488;28;20198;-78
2021/06/25 01:01:46;;;;;;;4.38;3.97;;;;;17.90;101765.00;;;;5109828;28;20197;-78
2021/06/25 01:04:15;;;;;;;5.03;4.13;;;;;17.90;101771.00;;;;5109772;28;20196;-78
2021/06/25 01:06:43;;;;;;;4.85;3.33;;;;;17.90;101766.00;;;;5110355;28;20406;-78
2021/06/25 01:09:11;;;;;;;4.78;3.85;;;;;17.80;101771.00;;;;5109795;28;20218;-78
2021/06/25 01:11:38;;;;;;;6.15;3.70;;;;;17.80;101772.00;;;;5110382;28;20200;-78
2021/06/25 01:14:06;;;;;;;5.25;3.80;;;;;17.80;101774.00;;;;5110227;28;20190;-78
2021/06/25 01:16:33;;;;;;;6.13;3.88;;;;;17.70;101774.00;;;;5109181;28;20201;-78
2021/06/25 01:19:02;;;;;;;4.95;3.72;;;;;17.70;101773.00;;;;5108872;28;20193;-78
2021/06/25 01:21:30;;;;;;;4.45;3.90;;;;;17.70;101767.00;;;;5109798;28;20542;-78
2021/06/25 01:23:57;;;;;;;3.97;3.58;;;;;17.60;101761.00;;;;5110799;28;20209;-78
2021/06/25 01:26:25;;;;;;;4.35;3.80;;;;;17.60;101754.00;;;;5110310;28;20192;-78
2021/06/25 01:28:52;;;;;;;3.47;3.05;;;;;17.60;101755.00;;;;5110371;28;20225;-78
2021/06/25 01:31:20;;;;;;;4.57;3.75;;;;;17.60;101756.00;;;;5110046;28;20216;-78
2021/06/25 01:33:48;;;;;;;4.13;3.53;;;;;17.60;101756.00;;;;5106707;28;20209;-78
2021/06/25 01:36:16;;;;;;;3.97;3.50;;;;;17.50;101757.00;;;;5095345;28;20638;-78
2021/06/25 01:38:47;;;;;;;4.18;3.58;;;;;17.50;101751.00;;;;5106228;28;20202;-78
2021/06/25 01:41:15;;;;;;;3.88;3.33;;;;;17.50;101736.00;;;;5109892;28;20198;-78
2021/06/25 01:43:42;;;;;;;4.03;3.40;;;;;17.50;101740.00;;;;5108939;28;20205;-78
2021/06/25 01:46:14;;;;;;;3.95;3.55;;;;;17.50;101742.00;;;;5109560;28;20200;-78
2021/06/25 01:48:41;;;;;;;4.00;3.03;;;;;17.40;101732.00;;;;5100852;28;20668;-78
2021/06/25 01:51:08;;;;;;;4.78;3.75;;;;;17.40;101729.00;;;;5108447;28;20201;-78
2021/06/25 01:53:36;;;;;;;4.10;3.42;;;;;17.40;101729.00;;;;5107682;28;20666;-78
2021/06/25 01:56:05;;;;;;;4.65;2.95;;;;;17.40;101725.00;;;;5108205;28;20205;-79
2021/06/25 01:58:32;;;;;;;4.15;3.03;;;;;17.40;101722.00;;;;5105149;28;20206;-78
2021/06/25 02:01:09;;;;;;;3.72;3.33;;;;;17.30;101738.00;;;;5102992;28;20193;-79
2021/06/25 02:03:37;;;;;;;3.47;3.17;;;;;17.30;101736.00;;;;5108372;28;20216;-78
2021/06/25 02:06:04;;;;;;;3.28;2.97;;;;;17.30;101734.00;;;;5110142;28;20254;-78
2021/06/25 02:08:32;;;;;;;3.53;3.22;;;;;17.30;101741.00;;;;5108549;28;20201;-78
2021/06/25 02:10:59;;;;;;;4.05;3.60;;;;;17.30;101742.00;;;;5095012;28;20688;-78
2021/06/25 02:13:28;;;;;;;3.38;3.05;;;;;17.20;101739.00;;;;5107897;28;20198;-78
2021/06/25 02:15:56;;;;;;;4.00;3.58;;;;;17.20;101739.00;;;;5107027;28;20204;-78
2021/06/25 02:18:23;;;;;;;4.30;3.90;;;;;17.20;101731.00;;;;5106536;28;20571;-78
2021/06/25 02:20:50;;;;;;;3.53;3.03;;;;;17.20;101725.00;;;;5109273;28;20209;-78
2021/06/25 02:23:18;;;;;;;4.18;3.70;;;;;17.20;101725.00;;;;5107194;28;20202;-78
2021/06/25 02:25:45;;;;;;;4.22;3.20;;;;;17.20;101718.00;;;;5101580;28;20197;-78
2021/06/25 02:28:12;;;;;;;4.63;4.07;;;;;17.20;101720.00;;;;5102474;28;20193;-78
2021/06/25 02:30:41;;;;;;;5.30;4.32;;;;;17.10;101720.00;;;;5101043;28;21016;-78
2021/06/25 02:33:08;;;;;;;5.63;4.15;;;;;17.10;101709.00;;;;5106568;28;20189;-78
2021/06/25 02:35:35;;;;;;;5.88;4.15;;;;;17.10;101715.00;;;;5105611;28;20229;-78
2021/06/25 02:38:03;;;;;;;5.47;4.40;;;;;17.20;101707.00;;;;5108361;28;20219;-78
2021/06/25 02:40:30;;;;;;;6.40;4.32;;;;;17.20;101706.00;;;;5109664;28;20706;-78
2021/06/25 02:42:57;;;;;;;6.03;4.75;;;;;17.10;101700.00;;;;5108339;28;20209;-78
2021/06/25 02:45:25;;;;;;;5.50;4.82;;;;;17.20;101704.00;;;;5108546;28;20193;-78
2021/06/25 02:47:53;;;;;;;5.82;4.72;;;;;17.10;101698.00;;;;5107629;28;20213;-78
2021/06/25 02:50:20;;;;;;;6.28;4.85;;;;;17.20;101698.00;;;;5107044;28;20213;-78
2021/06/25 02:52:48;;;;;;;4.88;4.30;;;;;17.20;101692.00;;;;5109013;28;20198;-78
2021/06/25 02:55:15;;;;;;;5.88;5.18;;;;;17.20;101683.00;;;;5107538;28;20214;-78
2021/06/25 02:57:42;;;;;;;6.50;4.47;;;;;17.20;101681.00;;;;5108287;28;20201;-78
2021/06/25 03:00:12;;;;;;;5.47;4.53;;;;;17.20;101684.00;;;;5108420;28;20196;-78
2021/06/25 03:02:40;;;;;;;5.78;4.72;;;;;17.20;101671.00;;;;5107609;28;20189;-78
2021/06/25 03:05:10;;;;;;;6.75;5.15;;;;;17.20;101669.00;;;;5104458;28;20571;-78
2021/06/25 03:07:38;;;;;;;6.82;4.68;;;;;17.30;101668.00;;;;5108524;28;20220;-78
2021/06/25 03:10:06;;;;;;;5.40;4.35;;;;;17.30;101668.00;;;;5107361;28;20217;-78
2021/06/25 03:12:34;;;;;;;5.43;4.50;;;;;17.30;101663.00;;;;5108549;28;20208;-78
2021/06/25 03:15:01;;;;;;;5.35;4.68;;;;;17.30;101662.00;;;;5107822;28;20193;-78
2021/06/25 03:17:29;;;;;;;5.82;4.82;;;;;17.30;101659.00;;;;5105920;28;20792;-78
2021/06/25 03:19:56;;;;;;;6.22;5.07;;;;;17.40;101654.00;;;;5107238;28;20212;-78
2021/06/25 03:22:24;;;;;;;7.80;5.70;;;;;17.40;101662.00;;;;5091417;28;20198;-78
2021/06/25 03:24:51;;;;;;;6.50;5.15;;;;;17.40;101663.00;;;;5108705;28;20782;-78
2021/06/25 03:27:19;;;;;;;6.20;4.93;;;;;17.50;101664.00;;;;5108404;28;20190;-78
2021/06/25 03:29:46;;;;;;;6.20;5.05;;;;;17.50;101669.00;;;;5093923;28;20696;-78
2021/06/25 03:32:13;;;;;;;7.30;5.60;;;;;17.50;101669.00;;;;5106137;28;20196;-78
2021/06/25 03:34:42;;;;;;;6.22;5.20;;;;;17.60;101673.00;;;;5107859;28;20679;-78
2021/06/25 03:37:10;;;;;;;6.78;5.70;;;;;17.60;101673.00;;;;5106425;28;20259;-78
2021/06/25 03:39:38;;;;;;;6.00;4.68;;;;;17.60;101667.00;;;;5094727;28;20196;-78
2021/06/25 03:42:07;;;;;;;6.93;5.70;;;;;17.70;101666.00;;;;5111669;28;20844;-78
2021/06/25 03:44:34;;;;;;;6.45;5.53;;;;;17.70;101662.00;;;;5103878;28;20217;-78
2021/06/25 03:47:01;;;;;;;6.55;5.38;;;;;17.80;101670.00;;;;5107151;28;20663;-78
2021/06/25 03:49:28;;;;;;;7.75;5.95;;;;;17.80;101675.00;;;;5103928;28;20186;-78
2021/06/25 03:51:56;;;;;;;6.88;4.82;;;;;17.80;101670.00;;;;5107639;28;20212;-78
2021/06/25 03:54:23;;;;;;;6.63;5.28;;;;;17.90;101669.00;;;;5107089;28;20190;-78
2021/06/25 03:56:52;;;;;;;6.88;4.93;;;;;17.90;101660.00;;;;5112344;28;20201;-78
2021/06/25 03:59:19;;;;;;;6.43;5.43;;;;;17.90;101658.00;;;;5113295;28;20224;-77
2021/06/25 04:01:47;;;;;;;6.80;5.40;;;;;18.00;101650.00;;;;5110587;28;20535;-78
2021/06/25 04:04:15;;;;;;;8.60;5.60;;;;;18.00;101651.00;;;;5111944;28;20224;-78
2021/06/25 04:06:43;;;;;;;7.90;6.03;;;;;18.10;101651.00;;;;5109032;28;21061;-78
2021/06/25 04:09:10;;;;;;;7.00;5.65;;;;;18.10;101650.00;;;;5094001;28;20644;-78
2021/06/25 04:11:37;;;;;;;8.50;5.75;;;;;18.10;101646.00;;;;5102638;28;20213;-78
2021/06/25 04:14:06;;;;;;;7.72;6.22;;;;;18.10;101650.00;;;;5112665;28;20209;-78
2021/06/25 04:16:33;;;;;;;7.32;5.47;;;;;18.20;101651.00;;;;5110594;28;20567;-78
2021/06/25 04:19:00;;;;;;;7.75;5.68;;;;;18.20;101644.00;;;;5112379;28;20258;-77
2021/06/25 04:21:28;;;;;;;9.07;6.38;;;;;18.20;101654.00;;;;5111347;28;20185;-77
2021/06/25 04:23:55;;;;;;;8.10;5.78;;;;;18.30;101645.00;;;;5111493;28;20193;-78
2021/06/25 04:26:22;;;;;;;8.70;6.32;;;;;18.30;101647.00;;;;5111110;28;20193;-78
2021/06/25 04:28:49;;;;;;;7.40;5.63;;;;;18.30;101652.00;;;;5112513;28;20193;-78
2021/06/25 04:31:18;;;;;;;8.45;6.18;;;;;18.30;101649.00;;;;5110546;28;20594;-78
2021/06/25 04:33:45;;;;;;;7.32;6.10;;;;;18.30;101643.00;;;;5111350;28;20208;-78
2021/06/25 04:36:12;;;;;;;10.32;6.40;;;;;18.40;101648.00;;;;5102932;28;20583;-78
2021/06/25 04:38:40;;;;;;;9.05;6.63;;;;;18.40;101653.00;;;;5111845;28;20193;-77
2021/06/25 04:41:07;;;;;;;10.82;7.50;;;;;18.40;101651.00;;;;5109396;28;20624;-77
2021/06/25 04:43:35;;;;;;;7.45;6.15;;;;;18.50;101646.00;;;;5110610;28;20201;-78
2021/06/25 04:46:02;;;;;;;10.07;6.88;;;;;18.50;101646.00;;;;5110146;28;20198;-77
2021/06/25 04:48:31;;;;;;;8.40;6.35;;;;;18.50;101644.00;;;;5108901;28;21029;-77
2021/06/25 04:50:58;;;;;;;8.75;6.90;;;;;18.50;101642.00;;;;5097469;28;20214;-77
2021/06/25 04:53:25;;;;;;;8.95;6.40;;;;;18.60;101638.00;;;;5108536;28;20198;-77
2021/06/25 04:55:52;;;;;;;7.82;5.82;;;;;18.60;101641.00;;;;5109718;28;20217;-78
2021/06/25 04:58:22;;;;;;;10.15;7.07;;;;;18.60;101633.00;;;;5111383;28;20204;-78
2021/06/25 05:00:49;;;;;;;9.32;6.90;;;;;18.70;101631.00;;;;5110848;28;20277;-77
2021/06/25 05:03:16;;;;;;;11.07;8.07;;;;;18.70;101625.00;;;;5110659;28;20208;-77
2021/06/25 05:05:45;;;;;;;10.02;6.97;;;;;18.70;101625.00;;;;5110763;28;20210;-77
2021/06/25 05:08:13;;;;;;;9.73;7.13;;;;;18.80;101624.00;;;;5111262;28;20229;-78
2021/06/25 05:10:40;;;;;;;10.63;7.10;;;;;18.80;101630.00;;;;5109468;28;20225;-78
2021/06/25 05:13:10;;;;;;;10.77;7.53;;;;;18.90;101625.00;;;;5110179;28;21028;-77
2021/06/25 05:15:37;;;;;;;8.98;7.28;;;;;18.90;101631.00;;;;5100572;28;20198;-77
2021/06/25 05:18:15;;;;;;;9.18;7.07;;;;;18.90;101623.00;;;;5104729;28;20679;-77
2021/06/25 05:20:46;;;;;;;8.30;6.78;;;;;19.00;101626.00;;;;5108764;28;20316;-77
2021/06/25 05:23:14;;;;;;;10.18;7.13;;;;;19.00;101623.00;;;;5107265;28;20201;-77
2021/06/25 05:25:42;;;;;;;9.93;7.50;;;;;19.10;101618.00;;;;5103383;28;20648;-78
2021/06/25 05:28:10;;;;;;;10.15;7.38;;;;;19.10;101614.00;;;;5090925;28;20190;-77
2021/06/25 05:30:38;;;;;;;8.77;6.70;;;;;19.20;101618.00;;;;5090623;28;20222;-78
2021/06/25 05:33:06;;;;;;;9.80;7.38;;;;;19.20;101607.00;;;;5101257;28;20198;-77
2021/06/25 05:35:34;;;;;;;8.50;6.50;;;;;19.30;101601.00;;;;5095216;28;20229;-77
2021/06/25 05:38:05;;;;;;;10.18;7.20;;;;;19.30;101602.00;;;;5106591;28;20198;-77
2021/06/25 05:40:32;;;;;;;7.95;6.40;;;;;19.40;101606.00;;;;5097019;28;20198;-77
2021/06/25 05:43:00;;;;;;;8.80;6.43;;;;;19.50;101597.00;;;;5104679;28;20201;-77
2021/06/25 05:45:27;;;;;;;10.52;6.95;;;;;19.50;101601.00;;;;5109217;28;20196;-77
2021/06/25 05:47:54;;;;;;;8.23;6.85;;;;;19.60;101602.00;;;;5107133;28;20206;-77
2021/06/25 05:50:22;;;;;;;9.50;6.82;;;;;19.60;101606.00;;;;5108827;28;20226;-77
2021/06/25 05:52:49;;;;;;;11.88;7.00;;;;;19.70;101612.00;;;;5108489;28;20197;-77
2021/06/25 05:55:18;;;;;;;9.50;6.35;;;;;19.70;101607.00;;;;5109649;28;20584;-77
2021/06/25 05:57:47;;;;;;;7.97;5.90;;;;;19.80;101600.00;;;;5106615;28;20193;-77
2021/06/25 06:00:16;;;;;;;7.97;6.15;;;;;19.80;101606.00;;;;5110266;28;20663;-76
2021/06/25 06:02:44;;;;;;;8.25;5.70;;;;;19.90;101601.00;;;;5109208;28;20288;-77
2021/06/25 06:05:12;;;;;;;7.97;6.90;;;;;20.00;101609.00;;;;5108406;28;20210;-77
2021/06/25 06:07:40;;;;;;;7.97;6.75;;;;;20.00;101605.00;;;;5104539;28;20194;-76
2021/06/25 06:10:09;;;;;;;7.50;6.40;;;;;20.10;101606.00;;;;5106676;28;20205;-76
2021/06/25 06:12:38;;;;;;;8.45;7.03;;;;;20.10;101615.00;;;;5096121;28;20205;-76
2021/06/25 06:15:06;;;;;;;8.88;6.28;;;;;20.20;101609.00;;;;5097413;28;20683;-76
2021/06/25 06:17:36;;;;;;;8.90;6.95;;;;;20.20;101604.00;;;;5106868;28;20197;-76
2021/06/25 06:20:04;;;;;;;7.65;6.13;;;;;20.20;101599.00;;;;5105026;28;20201;-77
2021/06/25 06:33:35;;;;;;;9.52;8.02;;;;;20.50;101599.00;;;;5108935;28;20234;-78
2021/06/25 06:36:04;;;;;;;9.18;7.10;;;;;20.60;101600.00;;;;5109011;28;20256;-77
2021/06/25 06:38:31;;;;;;;8.13;6.68;;;;;20.70;101602.00;;;;5108621;28;20194;-77
2021/06/25 06:40:59;;;;;;;10.75;7.88;;;;;20.70;101604.00;;;;5108768;28;20196;-78
2021/06/25 06:43:27;;;;;;;9.07;7.25;;;;;20.80;101601.00;;;;5109646;28;20204;-78
2021/06/25 06:45:54;;;;;;;10.70;7.78;;;;;20.80;101603.00;;;;5097189;28;20194;-78
2021/06/25 06:48:22;;;;;;;12.57;8.80;;;;;20.80;101597.00;;;;5108293;28;20212;-77
2021/06/25 06:50:49;;;;;;;11.05;8.68;;;;;20.80;101600.00;;;;5108804;28;20718;-77
2021/06/25 06:53:16;;;;;;;10.32;8.13;;;;;20.90;101599.00;;;;5108939;28;20189;-76
2021/06/25 06:55:44;;;;;;;11.55;7.68;;;;;20.90;101603.00;;;;5108266;28;20327;-76
2021/06/25 06:58:12;;;;;;;10.90;7.55;;;;;20.90;101603.00;;;;5108596;28;20193;-76
2021/06/25 07:00:40;;;;;;;9.75;7.38;;;;;20.90;101597.00;;;;5107070;28;20189;-76
2021/06/25 07:03:08;;;;;;;9.23;7.53;;;;;21.00;101606.00;;;;5108589;28;20201;-76
2021/06/25 07:05:35;;;;;;;10.82;8.10;;;;;21.00;101612.00;;;;5108063;28;20217;-75
2021/06/25 07:08:02;;;;;;;11.18;8.30;;;;;21.10;101617.00;;;;5108947;28;20190;-75
2021/06/25 07:10:29;;;;;;;11.02;8.20;;;;;21.10;101617.00;;;;5108738;28;20702;-75
2021/06/25 07:12:56;;;;;;;11.32;8.77;;;;;21.10;101625.00;;;;5105345;28;20182;-75
2021/06/25 07:15:24;;;;;;;11.30;9.05;;;;;21.10;101615.00;;;;5107184;28;20197;-75
2021/06/25 07:17:53;;;;;;;11.10;8.20;;;;;21.20;101619.00;;;;5105978;28;20209;-75
2021/06/25 07:20:20;;;;;;;11.07;8.27;;;;;21.20;101623.00;;;;5103481;28;20657;-76
2021/06/25 07:22:47;;;;;;;12.45;8.60;;;;;21.20;101630.00;;;;5109093;28;20603;-76
2021/06/25 07:25:15;;;;;;;13.20;9.88;;;;;21.20;101626.00;;;;5107372;28;20193;-77
2021/06/25 07:27:42;;;;;;;12.43;9.68;;;;;21.20;101625.00;;;;5107335;28;20236;-77
2021/06/25 07:30:10;;;;;;;12.30;9.15;;;;;21.20;101633.00;;;;5107301;28;20202;-78
2021/06/25 07:32:37;;;;;;;16.15;9.82;;;;;21.20;101635.00;;;;5107612;28;20260;-76
2021/06/25 07:35:07;;;;;;;10.88;8.32;;;;;21.20;101642.00;;;;5107241;28;20572;-77
2021/06/25 07:37:34;;;;;;;12.35;9.43;;;;;21.20;101640.00;;;;5106789;28;20220;-76
2021/06/25 07:40:02;;;;;;;11.65;7.53;;;;;21.30;101637.00;;;;5099243;28;20209;-77
2021/06/25 07:42:29;;;;;;;12.23;8.80;;;;;21.30;101643.00;;;;5105327;28;20655;-77
2021/06/25 07:44:56;;;;;;;12.50;8.65;;;;;21.30;101636.00;;;;5105151;28;20198;-77
2021/06/25 07:47:23;;;;;;;11.98;9.15;;;;;21.30;101640.00;;;;5092719;28;20186;-77
2021/06/25 07:49:52;;;;;;;13.88;9.80;;;;;21.30;101636.00;;;;5099543;28;20197;-77
2021/06/25 07:52:21;;;;;;;12.80;9.55;;;;;21.30;101634.00;;;;5107269;28;20820;-77
2021/06/25 07:54:48;;;;;;;12.57;10.13;;;;;21.40;101627.00;;;;5108566;28;20214;-77
2021/06/25 07:57:15;;;;;;;15.30;9.38;;;;;21.50;101632.00;;;;5109163;28;20201;-77
2021/06/25 07:59:42;;;;;;;14.70;11.23;;;;;21.50;101633.00;;;;5097715;28;20217;-77
2021/06/25 08:02:10;;;;;;;14.38;11.98;;;;;21.50;101632.00;;;;5090361;28;20555;-77
2021/06/25 08:04:37;;;;;;;16.63;11.27;;;;;21.60;101634.00;;;;5107870;28;20205;-77
2021/06/25 08:07:04;;;;;;;16.30;11.55;;;;;21.60;101630.00;;;;5107266;28;20194;-77
2021/06/25 08:09:33;;;;;;;20.27;12.63;;;;;21.70;101624.00;;;;5102549;28;20198;-77
2021/06/25 08:12:00;;;;;;;15.18;11.10;;;;;21.70;101630.00;;;;5106552;28;20232;-78
2021/06/25 08:14:27;;;;;;;16.27;11.98;;;;;21.70;101623.00;;;;5104952;28;20205;-77
2021/06/25 08:16:55;;;;;;;16.20;11.13;;;;;21.80;101620.00;;;;5108472;28;20194;-77
2021/06/25 08:19:22;;;;;;;15.15;11.30;;;;;21.80;101624.00;;;;5108647;28;20198;-78
2021/06/25 08:21:49;;;;;;;14.95;10.80;;;;;21.90;101622.00;;;;5108662;28;20197;-77
2021/06/25 08:24:16;;;;;;;16.05;11.23;;;;;22.00;101620.00;;;;5103910;28;20197;-78
2021/06/25 08:26:45;;;;;;;14.30;10.60;;;;;22.00;101617.00;;;;5098854;28;20209;-79
2021/06/25 08:29:12;;;;;;;15.90;11.05;;;;;22.10;101604.00;;;;5106652;28;20334;-78
2021/06/25 08:31:39;;;;;;;15.88;10.98;;;;;22.20;101608.00;;;;5111614;28;20222;-78
2021/06/25 08:34:10;;;;;;;14.60;11.02;;;;;22.20;101603.00;;;;5110325;28;20190;-79
2021/06/25 08:36:38;;;;;;;14.52;11.65;;;;;22.30;101601.00;;;;5109144;28;20594;-77
2021/06/25 08:39:06;;;;;;;14.80;10.80;;;;;22.40;101590.00;;;;5102263;28;20201;-77
2021/06/25 08:41:35;;;;;;;15.82;11.05;;;;;22.40;101595.00;;;;5111069;28;20209;-76
2021/06/25 08:44:04;;;;;;;15.07;10.48;;;;;22.50;101598.00;;;;5111805;28;20247;-78
2021/06/25 08:46:32;;;;;;;12.95;10.57;;;;;22.70;101600.00;;;;5100429;28;20201;-78
2021/06/25 08:49:02;;;;;;;12.98;10.77;;;;;22.80;101600.00;;;;5111368;28;20189;-77
2021/06/25 08:51:29;;;;;;;16.20;10.68;;;;;22.90;101606.00;;;;5111648;28;20229;-77
2021/06/25 08:53:56;;;;;;;13.45;10.75;;;;;23.10;101603.00;;;;5108459;28;20549;-78
2021/06/25 08:56:24;;;;;;;17.02;11.77;;;;;23.20;101601.00;;;;5109980;28;20229;-78
2021/06/25 08:58:51;;;;;;;15.18;11.82;;;;;23.30;101600.00;;;;5089767;28;20687;-78
2021/06/25 09:01:20;;;;;;;16.20;11.95;;;;;23.50;101606.00;;;;5106709;28;20205;-77
2021/06/25 09:03:53;;;;;;;12.48;10.48;;;;;23.50;101597.00;;;;5101432;27;20209;-78
2021/06/25 09:06:20;;;;;;;13.85;11.70;;;;;23.70;101608.00;;;;5105119;28;20213;-78
2021/06/25 09:08:48;;;;;;;16.13;12.20;;;;;23.80;101605.00;;;;5107375;28;20201;-78
2021/06/25 09:11:20;;;;;;;13.93;11.20;;;;;23.90;101603.00;;;;5110326;28;20267;-78
2021/06/25 09:13:48;;;;;;;16.00;10.82;;;;;24.00;101599.00;;;;5110536;28;20208;-78
2021/06/25 09:16:24;;;;;;;16.60;10.88;;;;;24.00;101603.00;;;;5109969;28;20208;-79
2021/06/25 09:19:01;;;;;;;21.73;11.55;;;;;24.00;101606.00;;;;5108485;28;20674;-77
2021/06/25 09:21:31;;;;;;;14.98;10.98;;;;;24.10;101600.00;;;;5109707;28;20205;-78
2021/06/25 09:24:14;;;;;;;14.52;10.25;;;;;24.20;101600.00;;;;5105615;28;20197;-77
2021/06/25 09:26:42;;;;;;;13.02;10.23;;;;;24.20;101604.00;;;;5109669;28;20201;-78
2021/06/25 09:29:15;;;;;;;14.45;10.50;;;;;24.20;101589.00;;;;5110276;28;20190;-78
2021/06/25 09:31:44;;;;;;;14.25;10.02;;;;;24.20;101589.00;;;;5108231;28;21014;-78
2021/06/25 09:34:12;;;;;;;14.90;10.68;;;;;24.30;101595.00;;;;5110092;28;20229;-77
2021/06/25 09:36:40;;;;;;;13.55;9.27;;;;;24.30;101596.00;;;;5104064;28;20721;-78
2021/06/25 09:39:10;;;;;;;14.73;10.20;;;;;24.30;101599.00;;;;5106814;28;20270;-77
2021/06/25 09:41:38;;;;;;;13.57;10.55;;;;;24.30;101598.00;;;;5108012;28;20209;-78
2021/06/25 09:44:08;;;;;;;12.95;10.25;;;;;24.40;101603.00;;;;5109925;28;20206;-79
2021/06/25 09:46:37;;;;;;;20.50;11.60;;;;;24.40;101601.00;;;;5100804;28;20198;-78
2021/06/25 09:49:08;;;;;;;16.80;11.15;;;;;24.40;101599.00;;;;5089037;28;20695;-78
2021/06/25 09:51:37;;;;;;;13.93;10.10;;;;;24.60;101607.00;;;;5089471;28;20229;-79
2021/06/25 09:54:15;;;;;;;14.15;9.98;;;;;24.60;101592.00;;;;5095612;28;20201;-78
2021/06/25 09:56:50;;;;;;;15.45;10.25;;;;;24.70;101597.00;;;;5109945;28;20570;-78
2021/06/25 09:59:30;;;;;;;11.02;8.57;;;;;24.80;101585.00;;;;5110003;28;20561;-78
2021/06/25 10:01:57;;;;;;;16.20;10.63;;;;;24.90;101587.00;;;;5110308;28;20300;-79
2021/06/25 10:04:36;;;;;;;15.80;11.52;;;;;24.90;101580.00;;;;5105657;28;20202;-77
2021/06/25 10:07:14;;;;;;;17.25;12.18;;;;;24.90;101589.00;;;;5106640;28;20254;-77
2021/06/25 10:09:42;;;;;;;12.32;10.05;;;;;25.00;101582.00;;;;5109058;28;20204;-77
2021/06/25 10:12:11;;;;;;;13.35;9.77;;;;;25.10;101589.00;;;;5107530;28;20551;-77
2021/06/25 10:14:38;;;;;;;14.63;11.02;;;;;25.10;101587.00;;;;5109594;28;20394;-77
2021/06/25 10:17:08;;;;;;;14.85;10.38;;;;;25.10;101585.00;;;;5108942;28;20220;-77
2021/06/25 10:19:39;;;;;;;13.32;10.57;;;;;25.10;101583.00;;;;5108895;28;20229;-76
2021/06/25 10:22:09;;;;;;;13.50;10.10;;;;;25.10;101583.00;;;;5109664;28;20198;-77
2021/06/25 10:24:37;;;;;;;11.63;9.52;;;;;25.10;101584.00;;;;5109777;28;20233;-77
2021/06/25 10:27:06;;;;;;;14.40;10.60;;;;;25.10;101585.00;;;;5109094;28;20201;-76
2021/06/25 10:29:34;;;;;;;13.30;10.88;;;;;25.10;101587.00;;;;5108281;28;20206;-78
2021/06/25 10:32:02;;;;;;;13.85;9.40;;;;;25.20;101588.00;;;;5110181;28;20217;-77
2021/06/25 10:34:32;;;;;;;13.65;10.60;;;;;25.10;101580.00;;;;5108513;28;20551;-76
2021/06/25 10:37:04;;;;;;;14.13;10.40;;;;;25.10;101584.00;;;;5109142;28;20233;-77
2021/06/25 10:39:33;;;;;;;11.95;10.10;;;;;25.20;101592.00;;;;5109747;28;20193;-77
2021/06/25 10:42:02;;;;;;;14.00;10.45;;;;;25.20;101598.00;;;;5109748;28;20198;-78
2021/06/25 10:44:40;;;;;;;15.88;11.00;;;;;25.10;101602.00;;;;5108652;28;20577;-77
2021/06/25 10:47:15;;;;;;;12.55;10.68;;;;;25.10;101599.00;;;;5088863;28;20185;-77
2021/06/25 10:50:30;;;;;;;12.93;10.70;;;;;25.00;101599.00;;;;5088496;28;20665;-77
2021/06/25 10:53:20;;;;;;;13.07;10.93;;;;;24.90;101594.00;;;;5089184;28;20225;-78
2021/06/25 10:56:03;;;;;;;12.32;10.48;;;;;24.90;101585.00;;;;5089345;28;20575;-76
2021/06/25 10:58:31;;;;;;;14.00;9.82;;;;;25.00;101592.00;;;;5089202;28;20209;-77
2021/06/25 11:01:00;;;;;;;11.82;10.43;;;;;25.10;101593.00;;;;5089140;28;20229;-77
2021/06/25 11:03:46;;;;;;;14.90;10.48;;;;;24.90;101583.00;;;;5096577;28;20660;-76
2021/06/25 11:06:52;;;;;;;13.07;10.55;;;;;24.90;101596.00;;;;5088633;28;20202;-77
2021/06/25 11:09:22;;;;;;;10.50;9.30;;;;;25.00;101596.00;;;;5089352;28;20262;-77
2021/06/25 11:12:10;;;;;;;14.60;10.75;;;;;25.00;101588.00;;;;5089349;28;20218;-77
2021/06/25 11:14:38;;;;;;;12.70;9.95;;;;;25.00;101588.00;;;;5087841;28;20210;-77
2021/06/25 11:17:05;;;;;;;15.73;10.18;;;;;25.00;101587.00;;;;5088839;28;20210;-77
2021/06/25 11:19:37;;;;;;;12.75;9.82;;;;;25.00;101584.00;;;;5096926;28;20213;-77
2021/06/25 11:22:20;;;;;;;15.50;9.48;;;;;25.00;101596.00;;;;5109278;28;20208;-77
2021/06/25 11:24:50;;;;;;;13.05;9.10;;;;;25.00;101585.00;;;;5108649;28;20201;-77
2021/06/25 11:27:18;;;;;;;11.50;8.60;;;;;25.00;101590.00;;;;5109155;28;20201;-77
2021/06/25 11:29:46;;;;;;;13.15;8.30;;;;;25.00;101591.00;;;;5108889;28;20198;-77
2021/06/25 11:32:28;;;;;;;14.23;10.18;;;;;25.00;101588.00;;;;5108070;28;20221;-77
2021/06/25 11:34:56;;;;;;;12.32;8.90;;;;;25.10;101588.00;;;;5109908;28;20210;-77
2021/06/25 11:37:39;;;;;;;11.82;9.35;;;;;25.10;101594.00;;;;5107936;28;20287;-76
2021/06/25 11:40:08;;;;;;;13.38;9.38;;;;;25.10;101591.00;;;;5108854;28;20201;-76
2021/06/25 11:42:37;;;;;;;12.63;10.18;;;;;25.10;101589.00;;;;5108117;28;20201;-76
2021/06/25 11:45:06;;;;;;;15.70;10.93;;;;;25.20;101593.00;;;;5108141;28;20198;-77
2021/06/25 11:47:39;;;;;;;14.27;10.93;;;;;25.20;101589.00;;;;5108917;28;20209;-78
2021/06/25 11:50:14;;;;;;;12.23;10.38;;;;;25.20;101588.00;;;;5109141;28;20210;-78
2021/06/25 11:52:42;;;;;;;13.27;10.50;;;;;25.20;101583.00;;;;5108060;28;20254;-78
2021/06/25 11:55:12;;;;;;;14.02;10.90;;;;;25.20;101586.00;;;;5107543;28;20741;-77
2021/06/25 11:57:41;;;;;;;13.63;10.98;;;;;25.20;101583.00;;;;5108788;28;20205;-76
2021/06/25 12:00:10;;;;;;;11.75;10.35;;;;;25.20;101588.00;;;;5108841;28;20204;-77
2021/06/25 12:02:43;;;;;;;14.85;10.60;;;;;25.20;101580.00;;;;5109842;28;20194;-77
2021/06/25 12:05:12;;;;;;;11.38;9.85;;;;;25.30;101589.00;;;;5112826;28;20194;-77
2021/06/25 12:07:39;;;;;;;14.73;11.30;;;;;25.30;101586.00;;;;5111502;28;20695;-76
2021/06/25 12:10:07;;;;;;;17.85;11.35;;;;;25.30;101590.00;;;;5111008;28;20679;-76
2021/06/25 12:12:38;;;;;;;13.68;11.18;;;;;25.30;101591.00;;;;5108872;28;20225;-76
2021/06/25 12:15:08;;;;;;;12.82;10.07;;;;;25.30;101594.00;;;;5111412;28;20220;-77
2021/06/25 12:17:45;;;;;;;14.35;11.05;;;;;25.20;101601.00;;;;5111620;28;20197;-77
2021/06/25 12:20:16;;;;;;;13.95;11.07;;;;;25.20;101599.00;;;;5111349;28;20197;-76
2021/06/25 12:22:49;;;;;;;13.35;10.60;;;;;25.20;101602.00;;;;5110205;28;20200;-75